Time;durP1;ratioP1;P1;durP2;ratioP2;P2;SDS_P1;SDS_P2;PMS_P1;PMS_P2;Temp;Humidity;BMP_temperature;BMP_pressure;BME280_temperature;BME280_humidity;BME280_pressure;Samples;Min_cycle;Max_cycle;Signal;HPM_P1;HPM_P2
2024/01/18 00:01:30;;;;;;;;;16.50;12.75;;;;;2.90;86.00;98837.72;5118518;27;47010;-52
2024/01/18 00:03:55;;;;;;;;;10.25;10.25;;;;;2.92;86.12;98833.22;5113193;27;45489;-48
2024/01/18 00:06:20;;;;;;;;;10.00;8.75;;;;;2.90;85.57;98835.09;5117675;27;67923;-50
2024/01/18 00:08:46;;;;;;;;;12.50;10.75;;;;;2.91;85.21;98831.53;5117469;27;45563;-52
2024/01/18 00:11:11;;;;;;;;;11.50;8.50;;;;;2.91;84.99;98845.50;5113269;27;46076;-51
2024/01/18 00:13:37;;;;;;;;;13.67;10.33;;;;;2.88;84.67;98843.03;5109504;27;45362;-52
2024/01/18 00:16:02;;;;;;;;;10.67;9.00;;;;;2.85;84.92;98842.34;5111799;27;46416;-48
2024/01/18 00:18:28;;;;;;;;;13.25;11.75;;;;;2.85;84.93;98847.59;5119947;27;45335;-51
2024/01/18 00:20:53;;;;;;;;;10.50;8.00;;;;;2.85;84.73;98855.47;5119702;27;53426;-49
2024/01/18 00:23:18;;;;;;;;;13.25;9.00;;;;;2.85;84.69;98863.34;5117948;27;70230;-50
2024/01/18 00:25:43;;;;;;;;;9.67;8.00;;;;;2.87;84.52;98874.59;5116532;27;65971;-49
2024/01/18 00:28:10;;;;;;;;;8.00;8.00;;;;;2.89;84.37;98878.88;5113834;27;71292;-47
2024/01/18 00:30:35;;;;;;;;;8.00;7.00;;;;;2.94;84.64;98876.88;5119594;27;47272;-47
2024/01/18 00:33:01;;;;;;;;;8.00;8.00;;;;;2.97;84.26;98862.72;5119467;27;45471;-48
2024/01/18 00:35:26;;;;;;;;;7.33;7.00;;;;;3.02;84.66;98871.22;5118623;27;56708;-49
2024/01/18 00:37:52;;;;;;;;;5.25;2.25;;;;;3.05;84.66;98865.84;5118273;27;63751;-50
2024/01/18 00:40:17;;;;;;;;;10.00;9.50;;;;;3.05;84.45;98854.47;5118980;27;46121;-50
2024/01/18 00:42:42;;;;;;;;;13.00;9.50;;;;;3.04;84.15;98856.25;5117439;27;66761;-51
2024/01/18 00:45:08;;;;;;;;;9.25;9.25;;;;;3.02;83.84;98860.72;5119384;27;51536;-50
2024/01/18 00:47:33;;;;;;;;;9.50;9.50;;;;;2.99;83.88;98866.16;5119776;27;45496;-49
2024/01/18 00:49:59;;;;;;;;;16.33;8.33;;;;;2.93;83.55;98866.44;5114180;27;73713;-50
2024/01/18 00:52:24;;;;;;;;;11.00;9.50;;;;;2.88;83.46;98865.81;5117238;27;50320;-48
2024/01/18 00:54:49;;;;;;;;;15.67;10.67;;;;;2.85;83.61;98873.84;5118831;27;45474;-52
2024/01/18 00:57:15;;;;;;;;;8.25;8.00;;;;;2.81;83.39;98876.59;5116286;27;68640;-51
2024/01/18 00:59:40;;;;;;;;;10.50;8.75;;;;;2.81;83.37;98867.91;5118844;27;71920;-48
2024/01/18 01:02:06;;;;;;;;;6.25;6.25;;;;;2.79;83.66;98874.97;5114362;27;72153;-49
2024/01/18 01:04:31;;;;;;;;;8.67;7.00;;;;;2.79;84.12;98865.34;5112269;27;45460;-52
2024/01/18 01:06:56;;;;;;;;;9.00;9.00;;;;;2.79;83.90;98869.72;5119041;27;45665;-52
2024/01/18 01:09:22;;;;;;;;;9.50;8.00;;;;;2.79;83.60;98867.97;5110781;27;75431;-47
2024/01/18 01:11:47;;;;;;;;;12.50;8.50;;;;;2.75;83.42;98866.44;5107199;27;71982;-48
2024/01/18 01:14:12;;;;;;;;;11.75;8.00;;;;;2.72;83.51;98855.22;5115095;27;53569;-47
2024/01/18 01:16:39;;;;;;;;;11.75;9.50;;;;;2.70;83.46;98851.81;5099763;27;45373;-50
2024/01/18 01:19:04;;;;;;;;;11.75;9.00;;;;;2.65;83.67;98852.88;5109849;27;72432;-49
2024/01/18 01:21:30;;;;;;;;;11.00;8.00;;;;;2.63;83.78;98851.25;5117528;27;72123;-48
2024/01/18 01:23:56;;;;;;;;;8.75;7.50;;;;;2.58;83.19;98856.75;5115061;27;45565;-49
2024/01/18 01:26:21;;;;;;;;;9.25;9.25;;;;;2.56;83.51;98853.31;5115686;27;45438;-50
2024/01/18 01:28:49;;;;;;;;;10.00;7.75;;;;;2.53;83.81;98850.88;5117428;27;74011;-50
2024/01/18 01:31:14;;;;;;;;;7.00;7.00;;;;;2.54;83.71;98856.94;5118677;27;45428;-49
2024/01/18 01:33:42;;;;;;;;;16.50;10.25;;;;;2.51;83.55;98860.56;5119059;27;45366;-49
2024/01/18 01:36:07;;;;;;;;;10.25;9.00;;;;;2.50;83.45;98858.88;5115916;27;45674;-48
2024/01/18 01:38:33;;;;;;;;;13.75;13.00;;;;;2.46;82.98;98866.06;5116983;27;67425;-52
2024/01/18 01:40:58;;;;;;;;;12.75;10.50;;;;;2.41;83.35;98862.78;5106957;27;55301;-51
2024/01/18 01:43:24;;;;;;;;;9.75;8.50;;;;;2.41;83.38;98869.81;5114950;27;45361;-50
2024/01/18 01:45:49;;;;;;;;;14.00;12.75;;;;;2.40;82.75;98868.97;5122343;27;45816;-49
2024/01/18 01:48:14;;;;;;;;;18.00;13.00;;;;;2.37;83.27;98870.88;5120617;27;74408;-50
2024/01/18 01:50:40;;;;;;;;;19.50;16.00;;;;;2.36;83.13;98874.41;5120763;27;70042;-50
2024/01/18 01:53:07;;;;;;;;;18.75;14.50;;;;;2.35;83.10;98881.44;5122122;27;45493;-56
2024/01/18 01:55:33;;;;;;;;;13.25;11.50;;;;;2.31;82.90;98880.72;5146110;27;45506;-50
2024/01/18 01:57:59;;;;;;;;;14.67;11.67;;;;;2.28;83.51;98893.13;5120765;27;69427;-49
2024/01/18 02:00:24;;;;;;;;;17.00;12.50;;;;;2.28;83.28;98891.38;5119672;27;45691;-48
2024/01/18 02:02:51;;;;;;;;;23.75;12.75;;;;;2.25;83.89;98888.03;5102484;27;67782;-50
2024/01/18 02:05:17;;;;;;;;;18.00;15.75;;;;;2.23;83.89;98890.75;5120032;27;45518;-50
2024/01/18 02:07:42;;;;;;;;;14.00;12.00;;;;;2.24;83.99;98892.44;5103150;27;46157;-52
2024/01/18 02:10:08;;;;;;;;;20.25;14.00;;;;;2.22;nan;98901.31;5113677;27;45517;-52
2024/01/18 02:12:34;;;;;;;;;14.00;11.75;;;;;2.19;84.23;98904.06;5117870;27;45429;-50
2024/01/18 02:14:59;;;;;;;;;20.00;12.50;;;;;2.18;84.34;98902.34;5115989;27;45568;-51
2024/01/18 02:17:24;;;;;;;;;14.00;12.25;;;;;2.16;84.04;98902.44;5106870;27;76015;-52
2024/01/18 02:19:50;;;;;;;;;14.00;12.00;;;;;2.13;84.55;98900.78;5100600;27;67172;-52
2024/01/18 02:22:16;;;;;;;;;15.00;12.75;;;;;2.13;85.03;98905.19;5102449;27;45264;-49
2024/01/18 02:24:46;;;;;;;;;16.50;14.00;;;;;2.08;84.70;98902.78;5113772;27;45183;-53
2024/01/18 02:27:11;;;;;;;;;13.25;12.00;;;;;2.00;85.49;98904.06;5119492;27;45408;-51
2024/01/18 02:29:37;;;;;;;;;22.25;13.25;;;;;1.98;85.81;98897.09;5112424;27;52360;-49
2024/01/18 02:32:02;;;;;;;;;18.50;18.00;;;;;1.96;85.51;98903.34;5114781;27;45447;-51
2024/01/18 02:34:28;;;;;;;;;8.00;7.75;;;;;1.92;86.46;98910.47;5144993;27;45560;-52
2024/01/18 02:36:53;;;;;;;;;21.75;13.75;;;;;1.89;86.59;98912.38;5119167;27;46130;-49
2024/01/18 02:39:19;;;;;;;;;21.25;17.50;;;;;1.85;86.44;98914.28;5119882;27;71264;-49
2024/01/18 02:41:44;;;;;;;;;23.75;18.75;;;;;1.79;86.74;98919.81;5116869;27;45426;-49
2024/01/18 02:44:09;;;;;;;;;18.25;16.75;;;;;1.72;87.57;98921.88;5115527;27;63949;-50
2024/01/18 02:46:35;;;;;;;;;12.00;9.00;;;;;1.69;88.36;98934.25;5113900;27;67662;-52
2024/01/18 02:49:00;;;;;;;;;12.50;12.50;;;;;1.68;88.09;98936.00;5113642;27;58455;-51
2024/01/18 02:51:26;;;;;;;;;17.25;11.75;;;;;1.70;88.81;98934.16;5117436;27;45636;-50
2024/01/18 02:53:51;;;;;;;;;16.75;10.75;;;;;1.71;88.56;98927.16;5115846;27;45414;-51
2024/01/18 02:56:17;;;;;;;;;12.50;11.75;;;;;1.70;89.25;98931.56;5115120;27;46042;-50
2024/01/18 02:58:42;;;;;;;;;11.50;11.50;;;;;1.72;90.01;98928.84;5115108;27;69771;-49
2024/01/18 03:01:09;;;;;;;;;13.50;9.00;;;;;1.73;90.15;98936.66;5113622;27;65062;-48
2024/01/18 03:03:35;;;;;;;;;13.00;12.25;;;;;1.71;89.30;98925.41;5116392;27;45482;-50
2024/01/18 03:06:00;;;;;;;;;20.25;13.75;;;;;1.68;89.73;98922.06;5116416;27;46943;-49
2024/01/18 03:08:26;;;;;;;;;11.75;10.00;;;;;1.59;89.86;98925.91;5115943;27;45693;-50
2024/01/18 03:10:51;;;;;;;;;12.00;12.00;;;;;1.54;90.95;98933.13;5116990;27;45695;-50
2024/01/18 03:13:16;;;;;;;;;12.25;11.50;;;;;1.52;91.06;98938.44;5112583;27;62719;-50
2024/01/18 03:15:41;;;;;;;;;8.25;7.00;;;;;1.48;91.82;98937.69;5116345;27;46090;-49
2024/01/18 03:18:07;;;;;;;;;11.25;9.25;;;;;1.47;91.79;98951.75;5115127;27;65939;-51
2024/01/18 03:20:32;;;;;;;;;9.75;9.75;;;;;1.47;92.21;98954.38;5115929;27;68275;-50
2024/01/18 03:22:57;;;;;;;;;7.25;6.50;;;;;1.45;92.08;98945.69;5141300;27;56778;-49
2024/01/18 03:25:23;;;;;;;;;10.25;7.75;;;;;1.46;93.03;98960.50;5110453;27;47097;-52
2024/01/18 03:27:48;;;;;;;;;17.25;11.75;;;;;1.46;93.48;98952.66;5113576;27;45799;-51
2024/01/18 03:30:14;;;;;;;;;10.75;9.50;;;;;1.48;93.42;98958.66;5114405;27;69195;-51
2024/01/18 03:32:39;;;;;;;;;15.75;11.00;;;;;1.47;93.70;98964.84;5117181;27;45501;-48
2024/01/18 03:35:06;;;;;;;;;7.50;5.75;;;;;1.46;93.08;98964.88;5115796;27;46035;-51
2024/01/18 03:37:31;;;;;;;;;11.00;10.00;;;;;1.41;93.09;98972.09;5118798;27;45587;-48
2024/01/18 03:39:56;;;;;;;;;15.50;10.75;;;;;1.36;93.21;98979.31;5118460;27;67708;-52
2024/01/18 03:42:22;;;;;;;;;15.25;11.50;;;;;1.29;93.96;98984.78;5120172;27;45437;-49
2024/01/18 03:44:47;;;;;;;;;10.25;10.25;;;;;1.26;94.13;98986.69;5117584;27;75190;-49
2024/01/18 03:47:12;;;;;;;;;10.00;10.00;;;;;1.25;94.13;98995.44;5115202;27;70887;-50
2024/01/18 03:49:38;;;;;;;;;10.00;10.00;;;;;1.25;94.77;99013.78;5112504;27;45472;-49
2024/01/18 03:52:03;;;;;;;;;12.25;9.25;;;;;1.25;94.11;99013.78;5111682;27;69405;-49
2024/01/18 03:54:29;;;;;;;;;9.75;8.00;;;;;1.25;94.67;99016.41;5117158;27;46209;-51
2024/01/18 03:56:54;;;;;;;;;8.00;8.00;;;;;1.23;94.60;99026.94;5115305;27;45816;-50
2024/01/18 03:59:20;;;;;;;;;10.50;7.50;;;;;1.21;94.29;99022.69;5118722;27;67233;-51
2024/01/18 04:01:45;;;;;;;;;10.00;7.50;;;;;1.22;94.43;99020.00;5120401;27;45425;-52
2024/01/18 04:04:11;;;;;;;;;15.25;9.75;;;;;1.25;94.96;99034.75;5135990;27;47154;-52
2024/01/18 04:06:36;;;;;;;;;11.75;10.75;;;;;1.27;95.18;99038.16;5114947;27;73165;-51
2024/01/18 04:09:02;;;;;;;;;18.00;14.25;;;;;1.25;94.72;99034.75;5116802;27;49108;-49
2024/01/18 04:11:27;;;;;;;;;19.00;14.25;;;;;1.24;94.34;99036.53;5118568;27;45654;-51
2024/01/18 04:13:52;;;;;;;;;14.75;10.00;;;;;1.20;94.19;99045.41;5115787;27;75701;-49
2024/01/18 04:16:18;;;;;;;;;22.25;15.75;;;;;1.15;93.93;99058.69;5114225;27;73210;-50
2024/01/18 04:18:43;;;;;;;;;14.50;12.75;;;;;1.10;94.83;99059.78;5119511;27;45454;-50
2024/01/18 04:21:09;;;;;;;;;20.50;15.00;;;;;1.03;94.47;99063.53;5117517;27;45497;-51
2024/01/18 04:23:34;;;;;;;;;22.25;12.75;;;;;0.97;94.40;99069.88;5107648;27;74776;-51
2024/01/18 04:25:59;;;;;;;;;23.75;18.75;;;;;0.94;94.51;99076.06;5112133;27;71796;-52
2024/01/18 04:28:25;;;;;;;;;16.25;12.00;;;;;0.95;95.08;99082.16;5113630;27;45550;-52
2024/01/18 04:30:50;;;;;;;;;23.00;18.75;;;;;0.96;95.37;99087.31;5116099;27;57037;-51
2024/01/18 04:33:18;;;;;;;;;16.75;15.00;;;;;0.97;94.89;99101.28;5118121;27;45986;-50
2024/01/18 04:35:44;;;;;;;;;18.75;16.50;;;;;0.98;94.26;99103.00;5114519;27;45573;-47
2024/01/18 04:38:09;;;;;;;;;15.75;12.00;;;;;0.99;94.22;99109.94;5113111;27;45421;-49
2024/01/18 04:40:34;;;;;;;;;12.25;10.50;;;;;1.00;93.53;99119.50;5112311;27;69036;-49
2024/01/18 04:42:59;;;;;;;;;14.75;10.00;;;;;0.98;93.27;99134.44;5116474;27;74215;-48
2024/01/18 04:45:25;;;;;;;;;21.25;15.50;;;;;0.94;94.40;99130.19;5113591;27;52204;-49
2024/01/18 04:47:52;;;;;;;;;17.75;17.25;;;;;0.93;93.68;99147.69;5114367;27;68382;-49
2024/01/18 04:50:20;;;;;;;;;11.50;8.25;;;;;0.94;93.91;99153.75;5113379;27;45798;-49
2024/01/18 04:52:46;;;;;;;;;16.25;15.25;;;;;0.93;93.17;99162.53;5118474;27;47234;-51
2024/01/18 04:55:11;;;;;;;;;22.25;15.00;;;;;0.89;92.59;99169.66;5114504;27;46711;-49
2024/01/18 04:57:36;;;;;;;;;17.25;16.00;;;;;0.86;93.91;99175.00;5114886;27;69208;-49
2024/01/18 05:00:02;;;;;;;;;19.75;15.00;;;;;0.84;93.77;99171.59;5118598;27;52732;-50
2024/01/18 05:02:34;;;;;;;;;25.00;19.50;;;;;0.81;93.78;99183.00;5118582;27;46151;-50
2024/01/18 05:04:59;;;;;;;;;20.75;19.50;;;;;0.82;93.66;99192.59;5114447;27;71408;-48
2024/01/18 05:07:24;;;;;;;;;20.25;18.00;;;;;0.82;93.29;99199.56;5116513;27;68274;-48
2024/01/18 05:09:49;;;;;;;;;17.50;16.00;;;;;0.83;92.97;99203.91;5109979;27;65386;-49
2024/01/18 05:12:15;;;;;;;;;25.75;24.50;;;;;0.87;93.43;99226.44;5117819;27;72296;-48
2024/01/18 05:14:40;;;;;;;;;22.50;20.50;;;;;0.87;92.80;99218.59;5108338;27;66137;-48
2024/01/18 05:17:10;;;;;;;;;20.00;20.00;;;;;0.88;93.56;99217.69;5096797;27;66397;-50
2024/01/18 05:19:36;;;;;;;;;21.50;20.25;;;;;0.91;94.01;99222.84;5117537;27;45595;-49
2024/01/18 05:22:01;;;;;;;;;29.25;20.75;;;;;0.92;93.40;99236.75;5111026;27;45800;-48
2024/01/18 05:24:26;;;;;;;;;23.50;22.25;;;;;0.95;93.15;99234.03;5112037;27;67254;-49
2024/01/18 05:26:52;;;;;;;;;30.25;23.00;;;;;0.97;92.66;99243.53;5111573;27;45406;-48
2024/01/18 05:29:17;;;;;;;;;27.75;22.00;;;;;0.97;92.39;99245.31;5115167;27;45422;-51
2024/01/18 05:31:42;;;;;;;;;32.75;31.25;;;;;0.97;92.87;99261.88;5117813;27;75610;-52
2024/01/18 05:34:08;;;;;;;;;32.50;28.25;;;;;0.95;92.32;99258.47;5116571;27;45430;-50
2024/01/18 05:36:33;;;;;;;;;31.00;26.00;;;;;0.94;92.97;99267.22;5114041;27;45662;-52
2024/01/18 05:38:58;;;;;;;;;27.00;21.00;;;;;0.91;91.65;99264.72;5113201;27;53385;-51
2024/01/18 05:41:24;;;;;;;;;21.50;17.25;;;;;0.90;91.63;99272.59;5104221;27;75274;-48
2024/01/18 05:43:49;;;;;;;;;29.75;27.50;;;;;0.91;92.00;99280.44;5142434;27;45603;-51
2024/01/18 05:46:15;;;;;;;;;36.50;28.00;;;;;0.93;92.25;99286.44;5115468;27;45544;-48
2024/01/18 05:48:40;;;;;;;;;34.00;26.75;;;;;0.96;92.61;99288.13;5107145;27;70560;-51
2024/01/18 05:51:05;;;;;;;;;36.50;28.25;;;;;1.01;92.64;99290.59;5139091;27;62628;-48
2024/01/18 05:53:31;;;;;;;;;32.50;29.25;;;;;1.06;91.79;99296.53;5114119;27;45349;-49
2024/01/18 05:55:59;;;;;;;;;38.75;26.50;;;;;1.08;92.52;99292.06;5109523;27;45417;-50
2024/01/18 05:58:25;;;;;;;;;33.00;29.25;;;;;1.09;91.64;99297.25;5111402;27;45631;-48
2024/01/18 06:00:50;;;;;;;;;28.00;22.00;;;;;1.12;91.50;99307.63;5139056;27;46496;-51
2024/01/18 06:03:15;;;;;;;;;24.50;20.75;;;;;1.20;91.32;99302.13;5106723;27;72525;-51
2024/01/18 06:05:40;;;;;;;;;26.75;24.75;;;;;1.27;92.06;99305.38;5108233;27;61136;-51
2024/01/18 06:08:06;;;;;;;;;29.00;26.00;;;;;1.29;92.21;99316.66;5103991;27;68229;-51
2024/01/18 06:10:33;;;;;;;;;21.75;20.50;;;;;1.30;91.61;99315.75;5108963;27;47039;-52
2024/01/18 06:12:59;;;;;;;;;19.25;15.25;;;;;1.31;91.11;99335.81;5107415;27;45717;-51
2024/01/18 06:15:24;;;;;;;;;27.25;20.50;;;;;1.35;91.53;99340.00;5101700;27;45534;-51
2024/01/18 06:17:50;;;;;;;;;26.00;24.25;;;;;1.38;91.21;99354.78;5110978;27;69549;-51
2024/01/18 06:20:15;;;;;;;;;25.25;21.25;;;;;1.37;91.01;99367.03;5106732;27;46050;-51
2024/01/18 06:22:41;;;;;;;;;24.25;20.00;;;;;1.39;91.21;99374.84;5109269;27;45626;-51
2024/01/18 06:25:06;;;;;;;;;25.25;19.00;;;;;1.40;91.49;99387.03;5108901;27;45572;-52
2024/01/18 06:27:33;;;;;;;;;23.75;20.50;;;;;1.42;91.33;99390.44;5107804;27;45514;-49
2024/01/18 06:29:58;;;;;;;;;27.00;20.50;;;;;1.42;90.84;99393.06;5113110;27;47589;-49
2024/01/18 06:32:25;;;;;;;;;32.50;22.50;;;;;1.43;92.02;99398.25;5114032;27;45462;-49
2024/01/18 06:34:50;;;;;;;;;29.00;24.00;;;;;1.44;90.62;99412.22;5105681;27;45498;-51
2024/01/18 06:37:16;;;;;;;;;20.50;17.00;;;;;1.48;91.30;99409.41;5108725;27;45533;-51
2024/01/18 06:39:41;;;;;;;;;34.00;24.25;;;;;1.51;90.91;99426.81;5107241;27;47879;-51
2024/01/18 06:42:08;;;;;;;;;24.00;20.00;;;;;1.53;91.80;99442.50;5113458;27;51650;-50
2024/01/18 06:44:34;;;;;;;;;31.25;24.25;;;;;1.49;91.33;99450.44;5112218;27;45509;-50
2024/01/18 06:47:00;;;;;;;;;30.75;23.75;;;;;1.51;91.35;99462.66;5113534;27;45675;-48
2024/01/18 06:49:26;;;;;;;;;28.75;23.00;;;;;1.46;91.42;99470.66;5112278;27;46198;-49
2024/01/18 06:51:51;;;;;;;;;21.75;20.00;;;;;1.42;90.53;99480.41;5110277;27;45580;-50
2024/01/18 06:54:21;;;;;;;;;26.75;21.75;;;;;1.44;90.60;99485.59;5103456;27;55608;-50
2024/01/18 06:56:47;;;;;;;;;28.25;25.25;;;;;1.48;90.02;99487.19;5113137;27;45545;-49
2024/01/18 06:59:13;;;;;;;;;25.25;22.50;;;;;1.47;90.27;99504.72;5111465;27;46686;-50
2024/01/18 07:01:39;;;;;;;;;25.75;25.25;;;;;1.42;88.72;99505.75;5115028;27;45346;-51
2024/01/18 07:04:04;;;;;;;;;28.75;25.00;;;;;1.40;89.20;99510.19;5115662;27;49706;-53
2024/01/18 07:06:29;;;;;;;;;24.00;24.00;;;;;1.36;88.99;99509.44;5119059;27;59108;-53
2024/01/18 07:08:55;;;;;;;;;31.75;25.75;;;;;1.35;89.26;99517.34;5116770;27;73021;-50
2024/01/18 07:11:20;;;;;;;;;25.75;24.00;;;;;1.34;89.20;99521.72;5098022;27;45439;-53
2024/01/18 07:13:45;;;;;;;;;26.00;23.50;;;;;1.36;89.83;99529.56;5118101;27;65192;-53
2024/01/18 07:16:11;;;;;;;;;39.00;34.00;;;;;1.34;89.42;99532.19;5138951;27;45619;-53
2024/01/18 07:18:36;;;;;;;;;31.25;26.50;;;;;1.32;88.57;99542.72;5116311;27;60157;-53
2024/01/18 07:21:01;;;;;;;;;44.00;36.00;;;;;1.30;88.63;99560.28;5117481;27;45505;-50
2024/01/18 07:23:28;;;;;;;;;27.00;24.00;;;;;1.31;87.98;99564.59;5116903;27;69153;-53
2024/01/18 07:25:53;;;;;;;;;31.25;27.25;;;;;1.32;88.27;99568.09;5119118;27;45614;-52
2024/01/18 07:28:19;;;;;;;;;29.00;28.00;;;;;1.32;88.45;99581.19;5116378;27;46154;-55
2024/01/18 07:30:45;;;;;;;;;41.00;32.00;;;;;1.33;88.87;99588.16;5111353;27;45467;-50
2024/01/18 07:33:10;;;;;;;;;43.75;36.50;;;;;1.29;88.46;99587.38;5107526;27;45523;-53
2024/01/18 07:35:36;;;;;;;;;42.50;32.00;;;;;1.28;88.49;99598.75;5113658;27;70906;-53
2024/01/18 07:38:01;;;;;;;;;40.25;34.50;;;;;1.27;87.77;99594.41;5112315;27;69813;-53
2024/01/18 07:40:26;;;;;;;;;32.00;27.75;;;;;1.23;87.98;99600.66;5100725;27;45547;-58
2024/01/18 07:42:52;;;;;;;;;27.00;22.25;;;;;1.20;87.37;99610.38;5118800;27;65838;-59
2024/01/18 07:45:17;;;;;;;;;36.00;29.00;;;;;1.19;86.97;99624.38;5119502;27;45479;-59
2024/01/18 07:47:43;;;;;;;;;35.00;27.00;;;;;1.14;87.19;99624.53;5113476;27;67608;-56
2024/01/18 07:50:09;;;;;;;;;37.25;29.50;;;;;1.14;87.19;99642.88;5112307;27;45896;-56
2024/01/18 07:52:36;;;;;;;;;43.50;32.75;;;;;1.15;87.29;99644.59;5109547;27;45511;-56
2024/01/18 07:55:03;;;;;;;;;37.00;35.00;;;;;1.15;87.30;99647.22;5113563;27;45652;-56
2024/01/18 07:57:28;;;;;;;;;33.00;29.25;;;;;1.16;87.76;99646.28;5112539;27;46248;-56
2024/01/18 07:59:53;;;;;;;;;34.50;27.00;;;;;1.20;87.29;99652.28;5115513;27;71616;-56
2024/01/18 08:02:18;;;;;;;;;53.00;36.25;;;;;1.23;86.94;99660.94;5111187;27;66670;-56
2024/01/18 08:04:44;;;;;;;;;38.00;30.25;;;;;1.26;87.27;99665.22;5103972;27;45971;-56
2024/01/18 08:07:09;;;;;;;;;32.25;26.25;;;;;1.29;87.26;99676.47;5116883;27;55684;-56
2024/01/18 08:09:37;;;;;;;;;42.00;33.50;;;;;1.34;87.11;99685.94;5118850;27;73750;-56
2024/01/18 08:12:04;;;;;;;;;39.00;30.50;;;;;1.36;86.67;99692.03;5116913;27;45330;-56
2024/01/18 08:14:30;;;;;;;;;28.00;24.75;;;;;1.36;86.79;99711.22;5117925;27;45577;-56
2024/01/18 08:16:55;;;;;;;;;38.50;25.25;;;;;1.40;86.52;99725.09;5115601;27;46897;-55
2024/01/18 08:19:20;;;;;;;;;33.25;26.00;;;;;1.43;86.79;99712.72;5117212;27;45520;-56
2024/01/18 08:21:46;;;;;;;;;34.75;29.25;;;;;1.45;86.36;99720.56;5117801;27;66088;-54
2024/01/18 08:24:11;;;;;;;;;26.75;25.50;;;;;1.49;86.44;99733.53;5115237;27;45457;-56
2024/01/18 08:26:37;;;;;;;;;30.50;28.50;;;;;1.54;86.56;99750.88;5102047;27;45440;-55
2024/01/18 08:29:02;;;;;;;;;27.50;19.25;;;;;1.57;85.79;99746.41;5111393;27;45371;-56
2024/01/18 08:31:28;;;;;;;;;34.75;28.75;;;;;1.61;86.22;99750.66;5106482;27;67037;-54
2024/01/18 08:33:53;;;;;;;;;37.25;29.75;;;;;1.68;85.71;99755.72;5116297;27;45339;-56
2024/01/18 08:36:18;;;;;;;;;33.00;27.25;;;;;1.71;86.08;99758.22;5110081;27;46793;-55
2024/01/18 08:38:44;;;;;;;;;40.75;32.50;;;;;1.75;85.50;99771.22;5107256;27;61558;-56
2024/01/18 08:41:10;;;;;;;;;37.50;33.75;;;;;1.80;84.88;99789.44;5113927;27;45473;-56
2024/01/18 08:43:35;;;;;;;;;40.00;30.75;;;;;1.85;84.72;99799.78;5109254;27;45346;-55
2024/01/18 08:46:01;;;;;;;;;32.25;30.25;;;;;1.89;84.39;99807.53;5103266;27;46204;-55
2024/01/18 08:48:26;;;;;;;;;37.00;32.00;;;;;1.93;84.42;99810.91;5146600;27;45752;-54
2024/01/18 08:50:52;;;;;;;;;40.50;33.50;;;;;1.99;84.27;99810.72;5119319;27;45427;-56
2024/01/18 08:53:17;;;;;;;;;44.50;38.75;;;;;2.03;83.49;99820.22;5118000;27;68501;-55
2024/01/18 08:55:42;;;;;;;;;34.75;30.25;;;;;2.05;83.28;99833.31;5103453;27;72623;-56
2024/01/18 08:58:08;;;;;;;;;36.75;33.75;;;;;2.09;82.95;99841.03;5116389;27;72104;-55
2024/01/18 09:00:34;;;;;;;;;37.00;34.75;;;;;2.13;82.86;99845.25;5115712;27;45349;-56
2024/01/18 09:03:00;;;;;;;;;52.75;42.00;;;;;2.17;83.75;99853.06;5119669;27;45517;-56
2024/01/18 09:05:26;;;;;;;;;47.50;38.50;;;;;2.18;83.50;99853.00;5118696;27;47102;-54
2024/01/18 09:07:51;;;;;;;;;50.50;39.00;;;;;2.17;82.59;99860.94;5118502;27;45389;-55
2024/01/18 09:10:16;;;;;;;;;35.00;31.50;;;;;2.20;82.48;99873.94;5110833;27;64498;-54
2024/01/18 09:12:43;;;;;;;;;53.00;39.00;;;;;2.25;82.91;99888.63;5116917;27;69337;-56
2024/01/18 09:15:09;;;;;;;;;54.25;38.00;;;;;2.33;81.91;99898.06;5111391;27;47179;-56
2024/01/18 09:17:34;;;;;;;;;50.50;39.50;;;;;2.40;82.55;99907.44;5117945;27;45979;-55
2024/01/18 09:20:00;;;;;;;;;46.00;39.25;;;;;2.47;82.43;99915.09;5111902;27;45663;-56
2024/01/18 09:22:25;;;;;;;;;40.25;37.75;;;;;2.59;81.57;99920.88;5116424;27;64816;-56
2024/01/18 09:24:50;;;;;;;;;44.25;38.75;;;;;2.73;81.26;99917.84;5113568;27;64562;-55
2024/01/18 09:27:16;;;;;;;;;46.50;36.25;;;;;2.87;81.87;99927.88;5118634;27;45448;-56
2024/01/18 09:29:41;;;;;;;;;50.25;38.50;;;;;3.05;80.38;99934.31;5113823;27;68116;-55
2024/01/18 09:32:06;;;;;;;;;41.25;34.25;;;;;3.18;81.11;99930.41;5111346;27;62927;-56
2024/01/18 09:34:32;;;;;;;;;40.25;35.25;;;;;3.30;79.57;99937.00;5113686;27;47131;-56
2024/01/18 09:36:58;;;;;;;;;42.25;37.00;;;;;3.42;78.86;99940.97;5110610;27;45482;-56
2024/01/18 09:39:23;;;;;;;;;44.25;37.25;;;;;3.51;78.98;99947.69;5109185;27;45409;-54
2024/01/18 09:41:53;;;;;;;;;37.00;36.00;;;;;3.56;78.44;99956.28;5115348;27;45412;-55
2024/01/18 09:44:31;;;;;;;;;42.75;33.50;;;;;3.58;77.74;99968.47;5113523;27;46187;-55
2024/01/18 09:46:57;;;;;;;;;32.00;28.00;;;;;3.57;77.30;99973.78;5113090;27;45847;-56
2024/01/18 09:49:24;;;;;;;;;44.50;39.50;;;;;3.58;77.49;99978.13;5101391;27;45414;-56
2024/01/18 09:51:50;;;;;;;;;51.50;38.50;;;;;3.58;76.72;99986.03;5118431;27;45524;-55
2024/01/18 09:54:15;;;;;;;;;45.50;36.25;;;;;3.60;77.08;99984.22;5117770;27;46065;-56
2024/01/18 09:56:45;;;;;;;;;34.00;32.25;;;;;3.66;76.82;99989.22;5118002;27;67449;-56
2024/01/18 09:59:16;;;;;;;;;50.00;39.75;;;;;3.80;76.60;100008.03;5114748;27;45390;-55
2024/01/18 10:01:41;;;;;;;;;43.75;36.00;;;;;4.29;77.13;100005.44;5116264;27;45364;-54
2024/01/18 10:04:07;;;;;;;;;37.75;34.50;;;;;5.25;76.92;100020.25;5115696;27;45391;-55
2024/01/18 10:06:33;;;;;;;;;39.50;32.50;;;;;6.28;74.85;100032.66;5121343;27;45475;-57
2024/01/18 10:08:58;;;;;;;;;45.00;37.25;;;;;7.20;74.31;100042.56;5117094;27;55444;-57
2024/01/18 10:11:23;;;;;;;;;42.50;33.75;;;;;7.95;71.49;100053.84;5118460;27;67746;-57
2024/01/18 10:13:53;;;;;;;;;56.25;42.50;;;;;8.55;70.14;100055.22;5121401;27;58973;-57
2024/01/18 10:16:27;;;;;;;;;37.50;34.25;;;;;9.12;65.35;100060.09;5118534;27;45447;-58
2024/01/18 10:18:52;;;;;;;;;54.25;39.00;;;;;9.55;58.17;100062.97;5117516;27;45415;-58
2024/01/18 10:21:18;;;;;;;;;44.50;38.25;;;;;10.00;61.18;100072.78;5121743;27;45609;-58
2024/01/18 10:23:43;;;;;;;;;38.00;34.50;;;;;10.48;58.84;100085.91;5119908;27;50579;-58
2024/01/18 10:26:09;;;;;;;;;40.50;36.00;;;;;10.88;61.01;100097.59;5120317;27;73743;-59
2024/01/18 10:28:36;;;;;;;;;44.00;35.25;;;;;11.12;55.96;100097.03;5121913;27;45544;-58
2024/01/18 10:31:01;;;;;;;;;40.50;33.75;;;;;11.15;58.95;100106.63;5122027;27;45425;-59
2024/01/18 10:33:29;;;;;;;;;36.25;31.50;;;;;11.25;53.26;100111.28;5117627;27;73966;-58
2024/01/18 10:35:54;;;;;;;;;30.75;27.25;;;;;11.29;56.30;100108.41;5121608;27;45551;-58
2024/01/18 10:38:28;;;;;;;;;41.00;35.25;;;;;11.17;50.77;100121.56;5119395;27;54669;-59
2024/01/18 10:40:53;;;;;;;;;43.00;35.25;;;;;11.18;55.41;100120.59;5120715;27;45782;-59
2024/01/18 10:43:19;;;;;;;;;32.50;31.75;;;;;11.31;54.21;100125.97;5120341;27;67869;-58
2024/01/18 10:45:45;;;;;;;;;46.75;33.75;;;;;11.58;56.47;100130.50;5119337;27;65552;-59
2024/01/18 10:48:10;;;;;;;;;32.33;28.67;;;;;11.73;55.33;100121.53;5112120;27;45389;-59
2024/01/18 10:50:36;;;;;;;;;34.00;30.00;;;;;11.89;54.37;100121.34;5101607;27;69945;-59
2024/01/18 10:53:02;;;;;;;;;36.00;29.25;;;;;12.05;49.71;100131.03;5118943;27;47919;-59
2024/01/18 10:55:28;;;;;;;;;43.25;36.25;;;;;12.11;53.61;100137.75;5153697;27;45474;-58
2024/01/18 10:57:53;;;;;;;;;39.00;34.25;;;;;12.07;51.78;100145.97;5119915;27;45291;-59
2024/01/18 11:00:19;;;;;;;;;28.00;26.00;;;;;11.94;51.66;100147.69;5120814;27;45463;-59
2024/01/18 11:02:45;;;;;;;;;47.00;36.25;;;;;11.85;53.43;100150.94;5119955;27;46834;-59
2024/01/18 11:05:18;;;;;;;;;34.25;33.00;;;;;11.70;52.33;100155.50;5119049;27;45382;-59
2024/01/18 11:07:45;;;;;;;;;36.67;30.67;;;;;11.54;51.96;100160.97;5120479;27;45397;-59
2024/01/18 11:10:11;;;;;;;;;30.00;29.67;;;;;11.47;51.16;100165.81;5116174;27;67443;-59
2024/01/18 11:12:41;;;;;;;;;44.25;36.00;;;;;11.38;49.99;100169.03;5119432;27;45309;-59
2024/01/18 11:15:10;;;;;;;;;36.00;33.33;;;;;11.20;53.47;100169.28;5119251;27;45533;-59
2024/01/18 11:17:35;;;;;;;;;34.00;31.67;;;;;11.00;52.59;100182.97;5121205;27;45369;-59
2024/01/18 11:20:01;;;;;;;;;18.50;15.25;;;;;10.79;53.86;100187.78;5117705;27;45480;-59